Time,TemperatureF,DewpointF,PressureIn,WindDirection,WindDirectionDegrees,WindSpeedMPH,WindSpeedGustMPH,Humidity,HourlyPrecipIn,Conditions,Clouds,dailyrainin,SoftwareType,DateUTC
2013-07-24 00:02:00,55.0,51.0,-100.00,NNE,25,0.0,0.0,85,-99.99,,,-99.99,,2013-07-24 05:02:00,
2013-07-24 01:34:00,54.0,52.0,-100.00,ENE,65,0.0,0.0,93,-99.99,,,-99.99,,2013-07-24 06:34:00,
2013-07-24 01:43:00,54.0,52.0,-100.00,ENE,65,0.0,0.0,93,-99.99,,,-99.99,,2013-07-24 06:43:00,
2013-07-24 01:53:00,54.0,52.0,-100.00,ENE,65,0.0,0.0,93,-99.99,,,-99.99,,2013-07-24 06:53:00,
2013-07-24 02:02:00,54.0,52.0,-100.00,ENE,65,0.0,0.0,93,-99.99,,,-99.99,,2013-07-24 07:02:00,
2013-07-24 03:10:00,53.0,52.0,-100.00,West,280,0.0,0.0,95,-99.99,,,-99.99,,2013-07-24 08:10:00,
2013-07-24 03:32:00,53.0,52.0,-100.00,West,280,0.0,0.0,95,-99.99,,,-99.99,,2013-07-24 08:32:00,
2013-07-24 03:43:00,53.0,52.0,-100.00,West,280,0.0,0.0,95,-99.99,,,-99.99,,2013-07-24 08:43:00,
2013-07-24 03:52:00,53.0,52.0,-100.00,West,280,0.0,0.0,95,-99.99,,,-99.99,,2013-07-24 08:52:00,
2013-07-24 04:02:00,53.0,52.0,-100.00,West,280,0.0,0.0,95,-99.99,,,-99.99,,2013-07-24 09:02:00,
2013-07-24 05:10:00,51.0,51.0,-100.00,West,280,0.0,0.0,98,-99.99,,,-99.99,,2013-07-24 10:10:00,
2013-07-24 05:33:00,51.0,51.0,-100.00,West,280,0.0,0.0,98,-99.99,,,-99.99,,2013-07-24 10:33:00,
2013-07-24 05:43:00,51.0,51.0,-100.00,West,280,0.0,0.0,98,-99.99,,,-99.99,,2013-07-24 10:43:00,
2013-07-24 05:53:00,51.0,51.0,-100.00,West,280,0.0,0.0,98,-99.99,,,-99.99,,2013-07-24 10:53:00,
2013-07-24 06:02:00,51.0,51.0,-100.00,West,280,0.0,0.0,98,-99.99,,,-99.99,,2013-07-24 11:02:00,
2013-07-24 06:32:00,53.0,52.0,-100.00,West,270,0.0,0.0,98,-99.99,,,-99.99,,2013-07-24 11:32:00,
2013-07-24 06:44:00,53.0,52.0,-100.00,West,270,0.0,0.0,98,-99.99,,,-99.99,,2013-07-24 11:44:00,
2013-07-24 06:52:00,53.0,52.0,-100.00,West,270,0.0,0.0,98,-99.99,,,-99.99,,2013-07-24 11:52:00,
2013-07-24 07:02:00,53.0,52.0,-100.00,West,270,0.0,0.0,98,-99.99,,,-99.99,,2013-07-24 12:02:00,
2013-07-24 08:32:00,56.0,52.0,-100.00,WSW,255,0.0,0.0,85,-99.99,,,-99.99,,2013-07-24 13:32:00,
2013-07-24 08:43:00,56.0,52.0,-100.00,WSW,255,0.0,0.0,85,-99.99,,,-99.99,,2013-07-24 13:43:00,
2013-07-24 08:53:00,56.0,52.0,-100.00,WSW,255,0.0,0.0,85,-99.99,,,-99.99,,2013-07-24 13:53:00,
2013-07-24 09:02:00,56.0,52.0,-100.00,WSW,255,0.0,0.0,85,-99.99,,,-99.99,,2013-07-24 14:02:00,
2013-07-24 09:32:00,58.0,52.0,-100.00,NE,55,0.0,0.0,80,-99.99,,,-99.99,,2013-07-24 14:32:00,
2013-07-24 09:43:00,58.0,52.0,-100.00,NE,55,0.0,0.0,80,-99.99,,,-99.99,,2013-07-24 14:43:00,
2013-07-24 09:55:00,58.0,52.0,-100.00,NE,55,0.0,0.0,80,-99.99,,,-99.99,,2013-07-24 14:55:00,
2013-07-24 10:02:00,58.0,52.0,-100.00,NE,55,0.0,0.0,80,-99.99,,,-99.99,,2013-07-24 15:02:00,
2013-07-24 11:11:00,67.0,50.0,-100.00,SSE,155,0.0,0.0,53,-99.99,,,-99.99,,2013-07-24 16:11:00,
2013-07-24 11:33:00,67.0,50.0,-100.00,SSE,155,0.0,0.0,53,-99.99,,,-99.99,,2013-07-24 16:33:00,
2013-07-24 11:43:00,67.0,50.0,-100.00,SSE,155,0.0,0.0,53,-99.99,,,-99.99,,2013-07-24 16:43:00,
2013-07-24 11:53:00,67.0,50.0,-100.00,SSE,155,0.0,0.0,53,-99.99,,,-99.99,,2013-07-24 16:53:00,
2013-07-24 12:02:00,67.0,50.0,-100.00,SSE,155,0.0,0.0,53,-99.99,,,-99.99,,2013-07-24 17:02:00,
2013-07-24 12:10:00,68.0,51.0,-100.00,West,270,7.0,12.0,55,-99.99,,,-99.99,,2013-07-24 17:10:00,
2013-07-24 12:33:00,68.0,51.0,-100.00,West,270,7.0,12.0,55,-99.99,,,-99.99,,2013-07-24 17:33:00,
2013-07-24 12:43:00,68.0,51.0,-100.00,West,270,7.0,12.0,55,-99.99,,,-99.99,,2013-07-24 17:43:00,
2013-07-24 12:53:00,68.0,51.0,-100.00,West,270,7.0,12.0,55,-99.99,,,-99.99,,2013-07-24 17:53:00,
2013-07-24 13:02:00,68.0,51.0,-100.00,West,270,7.0,12.0,55,-99.99,,,-99.99,,2013-07-24 18:02:00,
2013-07-24 13:33:00,72.0,50.0,-100.00,SE,145,0.0,0.0,47,-99.99,,,-99.99,,2013-07-24 18:33:00,
2013-07-24 13:43:00,72.0,50.0,-100.00,SE,145,0.0,0.0,47,-99.99,,,-99.99,,2013-07-24 18:43:00,
2013-07-24 13:52:00,72.0,50.0,-100.00,SE,145,0.0,0.0,47,-99.99,,,-99.99,,2013-07-24 18:52:00,
2013-07-24 14:02:00,72.0,50.0,-100.00,SE,145,0.0,0.0,47,-99.99,,,-99.99,,2013-07-24 19:02:00,
2013-07-24 15:33:00,75.0,49.0,-100.00,South,175,0.0,0.0,39,-99.99,,,-99.99,,2013-07-24 20:33:00,
2013-07-24 15:43:00,75.0,49.0,-100.00,South,175,0.0,0.0,39,-99.99,,,-99.99,,2013-07-24 20:43:00,
2013-07-24 15:53:00,75.0,49.0,-100.00,South,175,0.0,0.0,39,-99.99,,,-99.99,,2013-07-24 20:53:00,
2013-07-24 16:03:00,75.0,49.0,-100.00,South,175,0.0,0.0,39,-99.99,,,-99.99,,2013-07-24 21:03:00,
2013-07-24 16:11:00,76.0,49.0,-100.00,WSW,255,6.0,12.0,39,-99.99,,,-99.99,,2013-07-24 21:11:00,
2013-07-24 16:32:00,76.0,49.0,-100.00,WSW,255,6.0,12.0,39,-99.99,,,-99.99,,2013-07-24 21:32:00,
2013-07-24 16:44:00,76.0,49.0,-100.00,WSW,255,6.0,12.0,39,-99.99,,,-99.99,,2013-07-24 21:44:00,
2013-07-24 16:53:00,76.0,49.0,-100.00,WSW,255,6.0,12.0,39,-99.99,,,-99.99,,2013-07-24 21:53:00,
2013-07-24 17:02:00,76.0,49.0,-100.00,WSW,255,6.0,12.0,39,-99.99,,,-99.99,,2013-07-24 22:02:00,
2013-07-24 22:11:00,64.0,56.0,-100.00,SSE,160,0.0,0.0,75,-99.99,,,-99.99,,2013-07-25 03:11:00,
2013-07-24 22:40:00,64.0,56.0,-100.00,SSE,160,0.0,0.0,75,-99.99,,,-99.99,,2013-07-25 03:40:00,
2013-07-24 22:52:00,64.0,56.0,-100.00,SSE,160,0.0,0.0,75,-99.99,,,-99.99,,2013-07-25 03:52:00,
2013-07-24 23:02:00,64.0,56.0,-100.00,SSE,160,0.0,0.0,75,-99.99,,,-99.99,,2013-07-25 04:02:00,